sensor_id;sensor_type;location;lat;lon;timestamp;P1;durP1;ratioP1;P2;durP2;ratioP2
41480;SDS011;27217;51.220;5.308;2023-08-12T00:00:34;17.15;;;8.48;;
41480;SDS011;27217;51.220;5.308;2023-08-12T00:03:01;11.57;;;7.72;;
41480;SDS011;27217;51.220;5.308;2023-08-12T00:05:26;18.27;;;7.93;;
41480;SDS011;27217;51.220;5.308;2023-08-12T00:07:53;17.92;;;7.18;;
41480;SDS011;27217;51.220;5.308;2023-08-12T00:10:19;13.88;;;7.97;;
41480;SDS011;27217;51.220;5.308;2023-08-12T00:12:45;13.90;;;7.53;;
41480;SDS011;27217;51.220;5.308;2023-08-12T00:15:11;21.58;;;6.95;;
41480;SDS011;27217;51.220;5.308;2023-08-12T00:17:37;20.15;;;6.60;;
41480;SDS011;27217;51.220;5.308;2023-08-12T00:20:06;21.23;;;7.38;;
41480;SDS011;27217;51.220;5.308;2023-08-12T00:22:35;11.40;;;6.82;;
41480;SDS011;27217;51.220;5.308;2023-08-12T00:25:01;12.32;;;6.95;;
41480;SDS011;27217;51.220;5.308;2023-08-12T00:27:27;16.40;;;6.35;;
41480;SDS011;27217;51.220;5.308;2023-08-12T00:29:52;16.67;;;7.07;;
41480;SDS011;27217;51.220;5.308;2023-08-12T00:32:18;18.65;;;6.63;;
41480;SDS011;27217;51.220;5.308;2023-08-12T00:34:44;16.15;;;6.70;;
41480;SDS011;27217;51.220;5.308;2023-08-12T00:37:09;15.20;;;6.60;;
41480;SDS011;27217;51.220;5.308;2023-08-12T00:39:36;12.80;;;6.35;;
41480;SDS011;27217;51.220;5.308;2023-08-12T00:42:01;11.82;;;5.85;;
41480;SDS011;27217;51.220;5.308;2023-08-12T00:44:27;20.65;;;6.63;;
41480;SDS011;27217;51.220;5.308;2023-08-12T00:46:53;16.98;;;6.13;;
41480;SDS011;27217;51.220;5.308;2023-08-12T00:49:20;17.10;;;6.28;;
41480;SDS011;27217;51.220;5.308;2023-08-12T00:51:47;17.90;;;6.35;;
41480;SDS011;27217;51.220;5.308;2023-08-12T00:54:14;11.43;;;6.45;;
41480;SDS011;27217;51.220;5.308;2023-08-12T00:56:43;15.38;;;6.75;;
41480;SDS011;27217;51.220;5.308;2023-08-12T00:59:09;15.73;;;6.80;;
41480;SDS011;27217;51.220;5.308;2023-08-12T01:01:37;12.80;;;7.22;;
41480;SDS011;27217;51.220;5.308;2023-08-12T01:04:05;16.98;;;8.00;;
41480;SDS011;27217;51.220;5.308;2023-08-12T01:06:31;16.65;;;7.90;;
41480;SDS011;27217;51.220;5.308;2023-08-12T01:08:58;16.52;;;6.88;;
41480;SDS011;27217;51.220;5.308;2023-08-12T01:11:29;20.42;;;8.43;;
41480;SDS011;27217;51.220;5.308;2023-08-12T01:13:58;17.75;;;8.27;;
41480;SDS011;27217;51.220;5.308;2023-08-12T01:16:29;20.02;;;8.05;;
41480;SDS011;27217;51.220;5.308;2023-08-12T01:18:59;17.58;;;8.02;;
41480;SDS011;27217;51.220;5.308;2023-08-12T01:21:26;19.52;;;8.90;;
41480;SDS011;27217;51.220;5.308;2023-08-12T01:23:54;18.70;;;7.78;;
41480;SDS011;27217;51.220;5.308;2023-08-12T01:26:23;19.80;;;9.23;;
41480;SDS011;27217;51.220;5.308;2023-08-12T01:28:50;26.23;;;10.10;;
41480;SDS011;27217;51.220;5.308;2023-08-12T01:31:18;22.70;;;8.57;;
41480;SDS011;27217;51.220;5.308;2023-08-12T01:34:17;23.77;;;9.18;;
41480;SDS011;27217;51.220;5.308;2023-08-12T01:36:54;21.73;;;8.25;;
41480;SDS011;27217;51.220;5.308;2023-08-12T01:39:22;16.58;;;8.27;;
41480;SDS011;27217;51.220;5.308;2023-08-12T01:41:51;17.90;;;8.30;;
41480;SDS011;27217;51.220;5.308;2023-08-12T01:44:19;23.45;;;9.45;;
41480;SDS011;27217;51.220;5.308;2023-08-12T01:46:45;18.52;;;8.68;;
41480;SDS011;27217;51.220;5.308;2023-08-12T01:49:11;16.90;;;8.05;;
41480;SDS011;27217;51.220;5.308;2023-08-12T01:51:42;22.25;;;8.65;;
41480;SDS011;27217;51.220;5.308;2023-08-12T01:54:08;22.15;;;7.53;;
41480;SDS011;27217;51.220;5.308;2023-08-12T01:56:34;16.70;;;8.00;;
41480;SDS011;27217;51.220;5.308;2023-08-12T01:59:00;19.23;;;8.13;;
41480;SDS011;27217;51.220;5.308;2023-08-12T02:01:26;20.58;;;7.78;;
41480;SDS011;27217;51.220;5.308;2023-08-12T02:03:51;18.23;;;7.45;;
41480;SDS011;27217;51.220;5.308;2023-08-12T02:06:18;12.20;;;8.20;;
41480;SDS011;27217;51.220;5.308;2023-08-12T02:08:44;20.05;;;8.15;;
41480;SDS011;27217;51.220;5.308;2023-08-12T02:11:10;13.27;;;7.78;;
41480;SDS011;27217;51.220;5.308;2023-08-12T02:13:36;17.60;;;8.43;;
41480;SDS011;27217;51.220;5.308;2023-08-12T02:16:02;16.60;;;8.48;;
41480;SDS011;27217;51.220;5.308;2023-08-12T02:18:29;19.13;;;8.00;;
41480;SDS011;27217;51.220;5.308;2023-08-12T02:20:55;10.63;;;6.55;;
41480;SDS011;27217;51.220;5.308;2023-08-12T02:23:21;18.08;;;7.15;;
41480;SDS011;27217;51.220;5.308;2023-08-12T02:25:46;18.02;;;7.53;;
41480;SDS011;27217;51.220;5.308;2023-08-12T02:28:12;14.18;;;6.88;;
41480;SDS011;27217;51.220;5.308;2023-08-12T02:30:38;17.65;;;7.22;;
41480;SDS011;27217;51.220;5.308;2023-08-12T02:33:04;15.13;;;6.20;;
41480;SDS011;27217;51.220;5.308;2023-08-12T02:35:29;12.30;;;6.35;;
41480;SDS011;27217;51.220;5.308;2023-08-12T02:37:55;10.10;;;5.90;;
41480;SDS011;27217;51.220;5.308;2023-08-12T02:40:22;14.25;;;6.88;;
41480;SDS011;27217;51.220;5.308;2023-08-12T02:42:48;13.25;;;5.82;;
41480;SDS011;27217;51.220;5.308;2023-08-12T02:45:13;12.63;;;5.82;;
41480;SDS011;27217;51.220;5.308;2023-08-12T02:47:42;15.40;;;5.72;;
41480;SDS011;27217;51.220;5.308;2023-08-12T02:50:08;9.63;;;5.00;;
41480;SDS011;27217;51.220;5.308;2023-08-12T02:52:35;10.77;;;5.07;;
41480;SDS011;27217;51.220;5.308;2023-08-12T02:55:00;12.48;;;4.80;;
41480;SDS011;27217;51.220;5.308;2023-08-12T02:57:26;8.90;;;4.20;;
41480;SDS011;27217;51.220;5.308;2023-08-12T02:59:52;15.45;;;4.68;;
41480;SDS011;27217;51.220;5.308;2023-08-12T03:02:18;9.80;;;4.50;;
41480;SDS011;27217;51.220;5.308;2023-08-12T03:04:43;9.45;;;4.28;;
41480;SDS011;27217;51.220;5.308;2023-08-12T03:07:09;9.85;;;4.35;;
41480;SDS011;27217;51.220;5.308;2023-08-12T03:09:35;7.93;;;4.53;;
41480;SDS011;27217;51.220;5.308;2023-08-12T03:12:00;11.00;;;4.63;;
41480;SDS011;27217;51.220;5.308;2023-08-12T03:14:31;10.43;;;4.93;;
41480;SDS011;27217;51.220;5.308;2023-08-12T03:16:57;8.25;;;4.07;;
41480;SDS011;27217;51.220;5.308;2023-08-12T03:19:22;10.77;;;3.83;;
41480;SDS011;27217;51.220;5.308;2023-08-12T03:21:49;12.90;;;4.53;;
41480;SDS011;27217;51.220;5.308;2023-08-12T03:24:14;11.43;;;4.95;;
41480;SDS011;27217;51.220;5.308;2023-08-12T03:26:40;8.10;;;3.97;;
41480;SDS011;27217;51.220;5.308;2023-08-12T03:29:07;8.80;;;3.90;;
41480;SDS011;27217;51.220;5.308;2023-08-12T03:31:32;12.98;;;4.45;;
41480;SDS011;27217;51.220;5.308;2023-08-12T03:33:58;6.90;;;3.72;;
41480;SDS011;27217;51.220;5.308;2023-08-12T03:36:24;10.35;;;4.60;;
41480;SDS011;27217;51.220;5.308;2023-08-12T03:38:50;8.88;;;4.68;;
41480;SDS011;27217;51.220;5.308;2023-08-12T03:41:16;12.88;;;5.07;;
41480;SDS011;27217;51.220;5.308;2023-08-12T03:43:42;14.63;;;5.13;;
41480;SDS011;27217;51.220;5.308;2023-08-12T03:46:08;8.18;;;4.57;;
41480;SDS011;27217;51.220;5.308;2023-08-12T03:48:33;9.77;;;4.35;;
41480;SDS011;27217;51.220;5.308;2023-08-12T03:50:59;15.68;;;5.18;;
41480;SDS011;27217;51.220;5.308;2023-08-12T03:53:25;8.35;;;4.25;;
41480;SDS011;27217;51.220;5.308;2023-08-12T03:55:51;8.68;;;4.82;;
41480;SDS011;27217;51.220;5.308;2023-08-12T03:58:17;8.15;;;4.95;;
41480;SDS011;27217;51.220;5.308;2023-08-12T04:00:43;8.40;;;4.57;;
41480;SDS011;27217;51.220;5.308;2023-08-12T04:03:10;9.70;;;4.70;;
41480;SDS011;27217;51.220;5.308;2023-08-12T04:05:36;11.05;;;4.55;;
41480;SDS011;27217;51.220;5.308;2023-08-12T04:08:03;7.20;;;4.53;;
41480;SDS011;27217;51.220;5.308;2023-08-12T04:10:29;11.55;;;4.45;;
41480;SDS011;27217;51.220;5.308;2023-08-12T04:12:55;11.85;;;5.68;;
41480;SDS011;27217;51.220;5.308;2023-08-12T04:15:21;11.07;;;4.30;;
41480;SDS011;27217;51.220;5.308;2023-08-12T04:17:47;8.63;;;5.18;;
41480;SDS011;27217;51.220;5.308;2023-08-12T04:20:13;18.08;;;4.88;;
41480;SDS011;27217;51.220;5.308;2023-08-12T04:22:38;8.77;;;5.65;;
41480;SDS011;27217;51.220;5.308;2023-08-12T04:25:04;12.65;;;5.78;;
41480;SDS011;27217;51.220;5.308;2023-08-12T04:27:32;1.35;;;1.25;;
41480;SDS011;27217;51.220;5.308;2023-08-12T04:29:58;0.10;;;0.10;;
41480;SDS011;27217;51.220;5.308;2023-08-12T04:32:24;0.40;;;0.40;;
41480;SDS011;27217;51.220;5.308;2023-08-12T04:34:50;0.00;;;0.00;;
41480;SDS011;27217;51.220;5.308;2023-08-12T04:37:16;0.25;;;0.25;;
41480;SDS011;27217;51.220;5.308;2023-08-12T04:39:42;0.43;;;0.30;;
41480;SDS011;27217;51.220;5.308;2023-08-12T04:42:08;3.03;;;0.85;;
41480;SDS011;27217;51.220;5.308;2023-08-12T04:44:34;13.65;;;0.55;;
41480;SDS011;27217;51.220;5.308;2023-08-12T04:47:00;0.63;;;0.40;;
41480;SDS011;27217;51.220;5.308;2023-08-12T04:49:25;0.03;;;0.03;;
41480;SDS011;27217;51.220;5.308;2023-08-12T04:51:52;0.40;;;0.40;;
41480;SDS011;27217;51.220;5.308;2023-08-12T04:54:18;0.28;;;0.28;;
41480;SDS011;27217;51.220;5.308;2023-08-12T04:56:45;2.65;;;0.82;;
41480;SDS011;27217;51.220;5.308;2023-08-12T04:59:10;0.15;;;0.15;;
41480;SDS011;27217;51.220;5.308;2023-08-12T05:01:36;0.50;;;0.50;;
41480;SDS011;27217;51.220;5.308;2023-08-12T05:04:02;0.30;;;0.30;;
41480;SDS011;27217;51.220;5.308;2023-08-12T05:06:27;0.80;;;0.80;;
41480;SDS011;27217;51.220;5.308;2023-08-12T05:08:54;0.10;;;0.10;;
41480;SDS011;27217;51.220;5.308;2023-08-12T05:11:20;0.32;;;0.32;;
41480;SDS011;27217;51.220;5.308;2023-08-12T05:13:46;0.10;;;0.10;;
41480;SDS011;27217;51.220;5.308;2023-08-12T05:16:12;0.57;;;0.57;;
41480;SDS011;27217;51.220;5.308;2023-08-12T05:18:38;0.30;;;0.20;;
41480;SDS011;27217;51.220;5.308;2023-08-12T05:21:03;0.32;;;0.32;;
41480;SDS011;27217;51.220;5.308;2023-08-12T05:23:29;0.20;;;0.20;;
41480;SDS011;27217;51.220;5.308;2023-08-12T05:25:55;0.10;;;0.10;;
41480;SDS011;27217;51.220;5.308;2023-08-12T05:28:21;0.73;;;0.73;;
41480;SDS011;27217;51.220;5.308;2023-08-12T05:30:47;0.10;;;0.10;;
41480;SDS011;27217;51.220;5.308;2023-08-12T05:33:13;0.17;;;0.17;;
41480;SDS011;27217;51.220;5.308;2023-08-12T05:35:39;0.03;;;0.03;;
41480;SDS011;27217;51.220;5.308;2023-08-12T05:38:05;0.60;;;0.43;;
41480;SDS011;27217;51.220;5.308;2023-08-12T05:40:31;0.25;;;0.20;;
41480;SDS011;27217;51.220;5.308;2023-08-12T05:42:56;0.25;;;0.25;;
41480;SDS011;27217;51.220;5.308;2023-08-12T05:45:22;0.20;;;0.20;;
41480;SDS011;27217;51.220;5.308;2023-08-12T05:47:49;0.00;;;0.00;;
41480;SDS011;27217;51.220;5.308;2023-08-12T05:50:15;0.38;;;0.30;;
41480;SDS011;27217;51.220;5.308;2023-08-12T05:52:41;0.20;;;0.20;;
41480;SDS011;27217;51.220;5.308;2023-08-12T05:55:08;0.00;;;0.00;;
41480;SDS011;27217;51.220;5.308;2023-08-12T05:57:33;0.13;;;0.13;;
41480;SDS011;27217;51.220;5.308;2023-08-12T05:59:59;0.10;;;0.10;;
41480;SDS011;27217;51.220;5.308;2023-08-12T06:02:26;0.10;;;0.10;;
41480;SDS011;27217;51.220;5.308;2023-08-12T06:04:52;0.10;;;0.10;;
41480;SDS011;27217;51.220;5.308;2023-08-12T06:07:17;0.10;;;0.10;;
41480;SDS011;27217;51.220;5.308;2023-08-12T06:09:43;0.20;;;0.20;;
41480;SDS011;27217;51.220;5.308;2023-08-12T06:12:09;0.13;;;0.13;;
41480;SDS011;27217;51.220;5.308;2023-08-12T06:14:38;0.10;;;0.10;;
41480;SDS011;27217;51.220;5.308;2023-08-12T06:17:04;0.43;;;0.43;;
41480;SDS011;27217;51.220;5.308;2023-08-12T06:19:30;0.32;;;0.32;;
41480;SDS011;27217;51.220;5.308;2023-08-12T06:21:56;0.95;;;0.50;;
41480;SDS011;27217;51.220;5.308;2023-08-12T06:24:22;0.20;;;0.20;;
41480;SDS011;27217;51.220;5.308;2023-08-12T06:26:48;0.15;;;0.15;;
41480;SDS011;27217;51.220;5.308;2023-08-12T06:29:13;0.20;;;0.20;;
41480;SDS011;27217;51.220;5.308;2023-08-12T06:31:39;0.03;;;0.03;;
41480;SDS011;27217;51.220;5.308;2023-08-12T06:34:05;0.77;;;0.77;;
41480;SDS011;27217;51.220;5.308;2023-08-12T06:36:31;0.20;;;0.20;;
41480;SDS011;27217;51.220;5.308;2023-08-12T06:38:57;0.68;;;0.45;;
41480;SDS011;27217;51.220;5.308;2023-08-12T06:41:23;0.10;;;0.10;;
41480;SDS011;27217;51.220;5.308;2023-08-12T06:43:48;0.38;;;0.38;;
41480;SDS011;27217;51.220;5.308;2023-08-12T06:46:14;0.55;;;0.45;;
41480;SDS011;27217;51.220;5.308;2023-08-12T06:48:40;0.15;;;0.15;;
41480;SDS011;27217;51.220;5.308;2023-08-12T06:51:06;0.50;;;0.50;;
41480;SDS011;27217;51.220;5.308;2023-08-12T06:53:38;0.68;;;0.47;;
41480;SDS011;27217;51.220;5.308;2023-08-12T06:56:05;0.00;;;0.00;;
41480;SDS011;27217;51.220;5.308;2023-08-12T06:58:31;0.15;;;0.15;;
41480;SDS011;27217;51.220;5.308;2023-08-12T07:00:57;0.43;;;0.38;;
41480;SDS011;27217;51.220;5.308;2023-08-12T07:03:24;0.32;;;0.32;;
41480;SDS011;27217;51.220;5.308;2023-08-12T07:05:52;0.10;;;0.10;;
41480;SDS011;27217;51.220;5.308;2023-08-12T07:08:19;0.00;;;0.00;;
41480;SDS011;27217;51.220;5.308;2023-08-12T07:10:45;0.10;;;0.10;;
41480;SDS011;27217;51.220;5.308;2023-08-12T07:13:10;0.05;;;0.05;;
41480;SDS011;27217;51.220;5.308;2023-08-12T07:15:39;0.20;;;0.20;;
41480;SDS011;27217;51.220;5.308;2023-08-12T07:18:05;0.08;;;0.08;;
41480;SDS011;27217;51.220;5.308;2023-08-12T07:20:31;0.10;;;0.10;;
41480;SDS011;27217;51.220;5.308;2023-08-12T07:22:58;0.00;;;0.00;;
41480;SDS011;27217;51.220;5.308;2023-08-12T07:25:24;0.28;;;0.28;;
41480;SDS011;27217;51.220;5.308;2023-08-12T07:27:49;0.22;;;0.22;;
41480;SDS011;27217;51.220;5.308;2023-08-12T07:30:15;0.28;;;0.28;;
41480;SDS011;27217;51.220;5.308;2023-08-12T07:32:41;0.08;;;0.08;;
41480;SDS011;27217;51.220;5.308;2023-08-12T07:35:07;0.25;;;0.25;;
41480;SDS011;27217;51.220;5.308;2023-08-12T07:37:34;0.35;;;0.35;;
41480;SDS011;27217;51.220;5.308;2023-08-12T07:40:01;0.45;;;0.45;;
41480;SDS011;27217;51.220;5.308;2023-08-12T07:42:28;0.10;;;0.10;;
41480;SDS011;27217;51.220;5.308;2023-08-12T07:44:54;0.68;;;0.28;;
41480;SDS011;27217;51.220;5.308;2023-08-12T07:47:20;0.45;;;0.30;;
41480;SDS011;27217;51.220;5.308;2023-08-12T07:49:46;0.10;;;0.10;;
41480;SDS011;27217;51.220;5.308;2023-08-12T07:52:12;0.45;;;0.45;;
41480;SDS011;27217;51.220;5.308;2023-08-12T07:54:38;0.98;;;0.65;;
41480;SDS011;27217;51.220;5.308;2023-08-12T07:57:04;0.47;;;0.47;;
41480;SDS011;27217;51.220;5.308;2023-08-12T07:59:33;0.80;;;0.55;;
41480;SDS011;27217;51.220;5.308;2023-08-12T08:01:58;0.00;;;0.00;;
41480;SDS011;27217;51.220;5.308;2023-08-12T08:04:24;0.00;;;0.00;;
41480;SDS011;27217;51.220;5.308;2023-08-12T08:06:54;0.32;;;0.32;;
41480;SDS011;27217;51.220;5.308;2023-08-12T08:09:19;0.10;;;0.10;;
41480;SDS011;27217;51.220;5.308;2023-08-12T08:11:45;0.00;;;0.00;;
41480;SDS011;27217;51.220;5.308;2023-08-12T08:14:12;0.10;;;0.10;;
41480;SDS011;27217;51.220;5.308;2023-08-12T08:16:38;0.25;;;0.25;;
41480;SDS011;27217;51.220;5.308;2023-08-12T08:19:06;0.00;;;0.00;;
41480;SDS011;27217;51.220;5.308;2023-08-12T08:21:34;0.13;;;0.10;;
41480;SDS011;27217;51.220;5.308;2023-08-12T08:24:01;0.00;;;0.00;;
41480;SDS011;27217;51.220;5.308;2023-08-12T08:26:27;0.00;;;0.00;;
41480;SDS011;27217;51.220;5.308;2023-08-12T08:28:53;0.10;;;0.10;;
41480;SDS011;27217;51.220;5.308;2023-08-12T08:31:19;0.00;;;0.00;;
41480;SDS011;27217;51.220;5.308;2023-08-12T08:33:45;0.00;;;0.00;;
41480;SDS011;27217;51.220;5.308;2023-08-12T08:36:11;0.65;;;0.22;;
41480;SDS011;27217;51.220;5.308;2023-08-12T08:38:37;0.00;;;0.00;;
41480;SDS011;27217;51.220;5.308;2023-08-12T08:41:03;7.50;;;0.47;;
41480;SDS011;27217;51.220;5.308;2023-08-12T08:43:33;0.00;;;0.00;;
41480;SDS011;27217;51.220;5.308;2023-08-12T08:46:01;0.10;;;0.10;;
41480;SDS011;27217;51.220;5.308;2023-08-12T08:48:28;0.00;;;0.00;;
41480;SDS011;27217;51.220;5.308;2023-08-12T08:50:54;0.03;;;0.03;;
41480;SDS011;27217;51.220;5.308;2023-08-12T08:53:20;0.03;;;0.03;;
41480;SDS011;27217;51.220;5.308;2023-08-12T08:55:46;0.03;;;0.03;;
41480;SDS011;27217;51.220;5.308;2023-08-12T08:58:13;0.00;;;0.00;;
41480;SDS011;27217;51.220;5.308;2023-08-12T09:00:39;0.00;;;0.00;;
41480;SDS011;27217;51.220;5.308;2023-08-12T09:03:05;0.00;;;0.00;;
41480;SDS011;27217;51.220;5.308;2023-08-12T09:05:33;0.00;;;0.00;;
41480;SDS011;27217;51.220;5.308;2023-08-12T09:08:00;0.35;;;0.30;;
41480;SDS011;27217;51.220;5.308;2023-08-12T09:10:27;1.45;;;0.75;;
41480;SDS011;27217;51.220;5.308;2023-08-12T09:12:55;0.28;;;0.28;;
41480;SDS011;27217;51.220;5.308;2023-08-12T09:15:21;0.30;;;0.30;;
41480;SDS011;27217;51.220;5.308;2023-08-12T09:17:47;0.98;;;0.52;;
41480;SDS011;27217;51.220;5.308;2023-08-12T09:20:16;3.00;;;1.55;;
41480;SDS011;27217;51.220;5.308;2023-08-12T09:22:42;0.10;;;0.10;;
41480;SDS011;27217;51.220;5.308;2023-08-12T09:25:09;0.20;;;0.20;;
41480;SDS011;27217;51.220;5.308;2023-08-12T09:27:36;0.22;;;0.22;;
41480;SDS011;27217;51.220;5.308;2023-08-12T09:30:05;1.55;;;0.40;;
41480;SDS011;27217;51.220;5.308;2023-08-12T09:32:32;0.00;;;0.00;;
41480;SDS011;27217;51.220;5.308;2023-08-12T09:35:03;0.20;;;0.20;;
41480;SDS011;27217;51.220;5.308;2023-08-12T09:37:30;0.90;;;0.50;;
41480;SDS011;27217;51.220;5.308;2023-08-12T09:39:56;0.25;;;0.25;;
41480;SDS011;27217;51.220;5.308;2023-08-12T09:42:23;0.00;;;0.00;;
41480;SDS011;27217;51.220;5.308;2023-08-12T09:44:49;0.10;;;0.10;;
41480;SDS011;27217;51.220;5.308;2023-08-12T09:47:15;2.97;;;1.10;;
41480;SDS011;27217;51.220;5.308;2023-08-12T09:49:41;0.30;;;0.30;;
41480;SDS011;27217;51.220;5.308;2023-08-12T09:52:07;0.38;;;0.38;;
41480;SDS011;27217;51.220;5.308;2023-08-12T09:54:34;0.20;;;0.20;;
41480;SDS011;27217;51.220;5.308;2023-08-12T09:57:00;0.43;;;0.43;;
41480;SDS011;27217;51.220;5.308;2023-08-12T09:59:30;0.25;;;0.25;;
41480;SDS011;27217;51.220;5.308;2023-08-12T10:01:57;0.50;;;0.45;;
41480;SDS011;27217;51.220;5.308;2023-08-12T10:04:27;0.40;;;0.40;;
41480;SDS011;27217;51.220;5.308;2023-08-12T10:06:56;0.32;;;0.32;;
41480;SDS011;27217;51.220;5.308;2023-08-12T10:09:23;1.23;;;1.23;;
41480;SDS011;27217;51.220;5.308;2023-08-12T10:11:49;0.80;;;0.43;;
41480;SDS011;27217;51.220;5.308;2023-08-12T10:14:17;0.50;;;0.50;;
41480;SDS011;27217;51.220;5.308;2023-08-12T10:16:45;0.93;;;0.60;;
41480;SDS011;27217;51.220;5.308;2023-08-12T10:19:14;0.35;;;0.35;;
41480;SDS011;27217;51.220;5.308;2023-08-12T10:21:42;0.43;;;0.43;;
41480;SDS011;27217;51.220;5.308;2023-08-12T10:24:10;0.10;;;0.10;;
41480;SDS011;27217;51.220;5.308;2023-08-12T10:26:38;0.50;;;0.50;;
41480;SDS011;27217;51.220;5.308;2023-08-12T10:29:05;0.50;;;0.50;;
41480;SDS011;27217;51.220;5.308;2023-08-12T10:31:31;0.45;;;0.45;;
41480;SDS011;27217;51.220;5.308;2023-08-12T10:33:57;1.08;;;0.73;;
41480;SDS011;27217;51.220;5.308;2023-08-12T10:36:23;2.30;;;0.82;;
41480;SDS011;27217;51.220;5.308;2023-08-12T10:38:51;0.47;;;0.47;;
41480;SDS011;27217;51.220;5.308;2023-08-12T10:41:21;0.50;;;0.25;;
41480;SDS011;27217;51.220;5.308;2023-08-12T10:46:39;0.40;;;0.40;;
41480;SDS011;27217;51.220;5.308;2023-08-12T10:49:05;3.72;;;1.17;;
41480;SDS011;27217;51.220;5.308;2023-08-12T11:02:30;0.22;;;0.20;;
41480;SDS011;27217;51.220;5.308;2023-08-12T11:07:45;5.07;;;0.30;;
41480;SDS011;27217;51.220;5.308;2023-08-12T11:10:18;8.40;;;6.60;;
41480;SDS011;27217;51.220;5.308;2023-08-12T11:15:31;8.45;;;6.75;;
41480;SDS011;27217;51.220;5.308;2023-08-12T11:18:02;8.52;;;6.53;;
41480;SDS011;27217;51.220;5.308;2023-08-12T11:20:29;8.60;;;6.63;;
41480;SDS011;27217;51.220;5.308;2023-08-12T11:22:56;8.43;;;7.05;;
41480;SDS011;27217;51.220;5.308;2023-08-12T11:25:23;10.13;;;5.97;;
41480;SDS011;27217;51.220;5.308;2023-08-12T11:27:49;6.93;;;5.35;;
41480;SDS011;27217;51.220;5.308;2023-08-12T11:30:17;8.52;;;4.75;;
41480;SDS011;27217;51.220;5.308;2023-08-12T11:32:45;6.55;;;3.65;;
41480;SDS011;27217;51.220;5.308;2023-08-12T11:35:12;5.68;;;3.30;;
41480;SDS011;27217;51.220;5.308;2023-08-12T11:37:40;6.60;;;2.55;;
41480;SDS011;27217;51.220;5.308;2023-08-12T11:40:08;7.35;;;3.22;;
41480;SDS011;27217;51.220;5.308;2023-08-12T11:42:42;7.95;;;3.67;;
41480;SDS011;27217;51.220;5.308;2023-08-12T11:45:10;7.13;;;3.53;;
41480;SDS011;27217;51.220;5.308;2023-08-12T11:47:37;5.30;;;3.28;;
41480;SDS011;27217;51.220;5.308;2023-08-12T11:50:05;9.27;;;3.55;;
41480;SDS011;27217;51.220;5.308;2023-08-12T11:52:33;6.97;;;3.80;;
41480;SDS011;27217;51.220;5.308;2023-08-12T11:55:01;4.82;;;2.55;;
41480;SDS011;27217;51.220;5.308;2023-08-12T11:57:27;9.00;;;3.05;;
41480;SDS011;27217;51.220;5.308;2023-08-12T12:00:00;7.45;;;3.15;;
41480;SDS011;27217;51.220;5.308;2023-08-12T12:02:36;5.50;;;2.90;;
41480;SDS011;27217;51.220;5.308;2023-08-12T12:05:10;11.10;;;3.65;;
41480;SDS011;27217;51.220;5.308;2023-08-12T12:07:37;8.98;;;4.25;;
41480;SDS011;27217;51.220;5.308;2023-08-12T12:10:06;6.75;;;3.90;;
41480;SDS011;27217;51.220;5.308;2023-08-12T12:12:33;10.52;;;3.42;;
41480;SDS011;27217;51.220;5.308;2023-08-12T12:15:00;8.38;;;3.75;;
41480;SDS011;27217;51.220;5.308;2023-08-12T12:17:27;9.80;;;3.75;;
41480;SDS011;27217;51.220;5.308;2023-08-12T12:19:57;9.85;;;3.38;;
41480;SDS011;27217;51.220;5.308;2023-08-12T12:22:28;6.75;;;3.50;;
41480;SDS011;27217;51.220;5.308;2023-08-12T12:24:57;6.63;;;2.65;;
41480;SDS011;27217;51.220;5.308;2023-08-12T12:27:24;6.88;;;1.85;;
41480;SDS011;27217;51.220;5.308;2023-08-12T12:29:51;7.80;;;1.88;;
41480;SDS011;27217;51.220;5.308;2023-08-12T12:32:20;5.82;;;1.80;;
41480;SDS011;27217;51.220;5.308;2023-08-12T12:34:47;5.63;;;1.90;;
41480;SDS011;27217;51.220;5.308;2023-08-12T12:37:13;4.68;;;1.42;;
41480;SDS011;27217;51.220;5.308;2023-08-12T12:39:39;4.47;;;1.77;;
41480;SDS011;27217;51.220;5.308;2023-08-12T12:42:05;5.60;;;1.60;;
41480;SDS011;27217;51.220;5.308;2023-08-12T12:44:31;6.40;;;1.98;;
41480;SDS011;27217;51.220;5.308;2023-08-12T12:46:57;8.32;;;2.33;;
41480;SDS011;27217;51.220;5.308;2023-08-12T12:49:23;8.23;;;3.05;;
41480;SDS011;27217;51.220;5.308;2023-08-12T12:51:49;5.25;;;2.47;;
41480;SDS011;27217;51.220;5.308;2023-08-12T12:54:15;7.40;;;3.20;;
41480;SDS011;27217;51.220;5.308;2023-08-12T12:56:41;5.97;;;2.17;;
41480;SDS011;27217;51.220;5.308;2023-08-12T12:59:07;6.75;;;2.85;;
41480;SDS011;27217;51.220;5.308;2023-08-12T13:01:34;4.82;;;2.58;;
41480;SDS011;27217;51.220;5.308;2023-08-12T13:04:01;7.93;;;2.88;;
41480;SDS011;27217;51.220;5.308;2023-08-12T13:06:27;5.40;;;1.92;;
41480;SDS011;27217;51.220;5.308;2023-08-12T13:08:53;6.43;;;1.90;;
41480;SDS011;27217;51.220;5.308;2023-08-12T13:11:19;6.38;;;2.20;;
41480;SDS011;27217;51.220;5.308;2023-08-12T13:13:44;4.82;;;2.15;;
41480;SDS011;27217;51.220;5.308;2023-08-12T13:16:10;5.90;;;1.70;;
41480;SDS011;27217;51.220;5.308;2023-08-12T13:18:36;7.20;;;2.15;;
41480;SDS011;27217;51.220;5.308;2023-08-12T13:21:02;8.20;;;2.38;;
41480;SDS011;27217;51.220;5.308;2023-08-12T13:23:28;4.63;;;1.25;;
41480;SDS011;27217;51.220;5.308;2023-08-12T13:25:54;3.22;;;1.48;;
41480;SDS011;27217;51.220;5.308;2023-08-12T13:28:19;3.15;;;1.55;;
41480;SDS011;27217;51.220;5.308;2023-08-12T13:30:45;6.45;;;1.85;;
41480;SDS011;27217;51.220;5.308;2023-08-12T13:33:11;5.95;;;1.73;;
41480;SDS011;27217;51.220;5.308;2023-08-12T13:35:37;7.70;;;1.63;;
41480;SDS011;27217;51.220;5.308;2023-08-12T13:38:03;3.72;;;1.65;;
41480;SDS011;27217;51.220;5.308;2023-08-12T13:40:29;4.78;;;1.40;;
41480;SDS011;27217;51.220;5.308;2023-08-12T13:42:55;4.97;;;1.40;;
41480;SDS011;27217;51.220;5.308;2023-08-12T13:45:21;5.30;;;1.40;;
41480;SDS011;27217;51.220;5.308;2023-08-12T13:47:48;5.22;;;1.50;;
41480;SDS011;27217;51.220;5.308;2023-08-12T13:50:16;3.38;;;1.33;;
41480;SDS011;27217;51.220;5.308;2023-08-12T13:52:42;3.28;;;1.42;;
41480;SDS011;27217;51.220;5.308;2023-08-12T13:55:08;4.57;;;1.40;;
41480;SDS011;27217;51.220;5.308;2023-08-12T13:57:34;3.63;;;1.25;;
41480;SDS011;27217;51.220;5.308;2023-08-12T14:00:00;11.48;;;2.03;;
41480;SDS011;27217;51.220;5.308;2023-08-12T14:02:26;7.60;;;1.65;;
41480;SDS011;27217;51.220;5.308;2023-08-12T14:04:53;4.65;;;1.52;;
41480;SDS011;27217;51.220;5.308;2023-08-12T14:07:19;4.72;;;1.60;;
41480;SDS011;27217;51.220;5.308;2023-08-12T14:09:46;6.43;;;1.35;;
41480;SDS011;27217;51.220;5.308;2023-08-12T14:12:12;5.43;;;1.50;;
41480;SDS011;27217;51.220;5.308;2023-08-12T14:14:38;5.22;;;1.50;;
41480;SDS011;27217;51.220;5.308;2023-08-12T14:17:06;4.38;;;1.42;;
41480;SDS011;27217;51.220;5.308;2023-08-12T14:19:32;4.88;;;1.23;;
41480;SDS011;27217;51.220;5.308;2023-08-12T14:21:58;3.95;;;1.40;;
41480;SDS011;27217;51.220;5.308;2023-08-12T14:24:24;3.85;;;1.30;;
41480;SDS011;27217;51.220;5.308;2023-08-12T14:26:50;2.90;;;1.15;;
41480;SDS011;27217;51.220;5.308;2023-08-12T14:29:16;8.50;;;1.80;;
41480;SDS011;27217;51.220;5.308;2023-08-12T14:31:42;2.80;;;1.20;;
41480;SDS011;27217;51.220;5.308;2023-08-12T14:34:08;5.90;;;1.40;;
41480;SDS011;27217;51.220;5.308;2023-08-12T14:36:35;3.88;;;1.45;;
41480;SDS011;27217;51.220;5.308;2023-08-12T14:39:01;6.28;;;1.90;;
41480;SDS011;27217;51.220;5.308;2023-08-12T14:41:27;6.18;;;1.58;;
41480;SDS011;27217;51.220;5.308;2023-08-12T14:43:53;5.05;;;1.50;;
41480;SDS011;27217;51.220;5.308;2023-08-12T14:46:19;5.15;;;1.10;;
41480;SDS011;27217;51.220;5.308;2023-08-12T14:48:44;6.40;;;1.95;;
41480;SDS011;27217;51.220;5.308;2023-08-12T14:51:10;3.42;;;1.38;;
41480;SDS011;27217;51.220;5.308;2023-08-12T14:53:37;4.25;;;1.10;;
41480;SDS011;27217;51.220;5.308;2023-08-12T14:56:02;4.13;;;1.55;;
41480;SDS011;27217;51.220;5.308;2023-08-12T14:58:28;5.30;;;1.40;;